createdAt,value
2018-01-13T00:00:18.355Z,58.51
2018-01-13T00:01:20.813Z,58.53
2018-01-13T00:02:23.292Z,58.65
2018-01-13T00:03:25.758Z,58.69
2018-01-13T00:04:28.222Z,58.46
2018-01-13T00:05:30.703Z,58.33
2018-01-13T00:06:33.185Z,58.32
2018-01-13T00:07:35.663Z,58.37
2018-01-13T00:08:38.152Z,58.57
2018-01-13T00:09:40.621Z,58.71
2018-01-13T00:10:43.099Z,58.72
2018-01-13T00:11:45.580Z,58.80
2018-01-13T00:12:48.069Z,58.76
2018-01-13T00:13:50.556Z,58.93
2018-01-13T00:14:53.060Z,58.89
2018-01-13T00:15:55.526Z,59.10
2018-01-13T00:16:58.030Z,59.15
2018-01-13T00:18:00.535Z,59.18
2018-01-13T00:19:02.997Z,59.40
2018-01-13T00:20:05.457Z,59.10
2018-01-13T00:21:07.929Z,58.84
2018-01-13T00:22:10.448Z,58.74
2018-01-13T00:23:13.021Z,58.77
2018-01-13T00:24:15.524Z,58.92
2018-01-13T00:25:17.988Z,59.25
2018-01-13T00:26:20.468Z,59.34
2018-01-13T00:27:22.938Z,59.40
2018-01-13T00:28:25.416Z,59.22
2018-01-13T00:29:27.874Z,59.09
2018-01-13T00:30:30.360Z,58.97
2018-01-13T00:31:32.839Z,58.89
2018-01-13T00:32:35.303Z,58.98
2018-01-13T00:33:37.767Z,59.10
2018-01-13T00:34:40.244Z,59.11
2018-01-13T00:35:42.738Z,59.49
2018-01-13T00:36:45.212Z,59.49
2018-01-13T00:37:47.673Z,59.50
2018-01-13T00:38:50.152Z,59.34
2018-01-13T00:39:52.621Z,59.34
2018-01-13T00:40:55.092Z,59.40
2018-01-13T00:41:57.571Z,59.32
2018-01-13T00:43:00.035Z,59.27
2018-01-13T00:44:02.504Z,59.44
2018-01-13T00:45:04.972Z,59.86
2018-01-13T00:46:07.453Z,59.85
2018-01-13T00:47:09.917Z,59.91
2018-01-13T00:48:12.397Z,59.79
2018-01-13T00:49:14.874Z,59.87
2018-01-13T00:50:17.351Z,59.79
2018-01-13T00:51:19.813Z,59.95
2018-01-13T00:52:22.270Z,59.83
2018-01-13T00:53:24.738Z,59.86
2018-01-13T00:54:27.211Z,59.89
2018-01-13T00:55:29.673Z,59.68
2018-01-13T00:56:32.138Z,59.80
2018-01-13T00:57:34.616Z,59.95
2018-01-13T00:58:37.108Z,59.88
2018-01-13T00:59:39.579Z,59.84
2018-01-13T01:00:42.056Z,59.83
2018-01-13T01:01:44.541Z,59.87
2018-01-13T01:02:47.022Z,59.88
2018-01-13T01:03:49.535Z,59.73
2018-01-13T01:04:51.965Z,59.87
2018-01-13T01:05:54.439Z,59.92
2018-01-13T01:06:56.912Z,60.00
2018-01-13T01:07:59.369Z,59.74
2018-01-13T01:09:01.849Z,59.91
2018-01-13T01:10:04.352Z,59.88
2018-01-13T01:11:06.828Z,59.86
2018-01-13T01:12:09.296Z,59.90
2018-01-13T01:13:11.767Z,59.94
2018-01-13T01:14:14.229Z,59.98
2018-01-13T01:15:16.714Z,59.93
2018-01-13T01:16:19.169Z,60.33
2018-01-13T01:17:21.644Z,60.65
2018-01-13T01:18:24.371Z,60.60
2018-01-13T01:19:26.892Z,60.59
2018-01-13T01:20:29.350Z,60.74
2018-01-13T01:21:31.823Z,60.68
2018-01-13T01:22:34.296Z,60.57
2018-01-13T01:23:36.749Z,60.63
2018-01-13T01:24:39.205Z,60.77
2018-01-13T01:25:41.679Z,60.85
2018-01-13T01:26:44.176Z,60.87
2018-01-13T01:27:46.650Z,60.88
2018-01-13T01:28:49.115Z,60.84
2018-01-13T01:29:51.578Z,60.76
2018-01-13T01:30:54.042Z,60.94
2018-01-13T01:31:56.520Z,60.80
2018-01-13T01:32:58.992Z,60.91
2018-01-13T01:34:01.467Z,60.77
2018-01-13T01:35:03.929Z,60.73
2018-01-13T01:36:06.404Z,60.38
2018-01-13T01:37:08.862Z,60.43
2018-01-13T01:38:11.332Z,60.39
2018-01-13T01:39:14.748Z,60.51
2018-01-13T01:40:17.210Z,60.52
2018-01-13T01:41:19.670Z,60.62
2018-01-13T01:42:22.148Z,60.71
2018-01-13T01:43:24.631Z,60.72
2018-01-13T01:44:27.119Z,60.74
2018-01-13T01:45:29.592Z,60.72
2018-01-13T01:46:32.054Z,60.97
2018-01-13T01:47:34.510Z,60.92
2018-01-13T01:48:36.969Z,60.88
2018-01-13T01:49:39.448Z,60.90
2018-01-13T01:50:41.911Z,60.72
2018-01-13T01:51:44.385Z,60.64
2018-01-13T01:52:46.845Z,60.63
2018-01-13T01:53:49.301Z,60.84
2018-01-13T01:54:51.780Z,60.69
2018-01-13T01:55:54.243Z,60.55
2018-01-13T01:56:56.725Z,60.58
2018-01-13T01:57:59.197Z,60.59
2018-01-13T01:59:01.672Z,60.74
2018-01-13T02:00:04.157Z,60.63
2018-01-13T02:01:06.632Z,60.61
2018-01-13T02:02:09.099Z,60.75
2018-01-13T02:03:11.557Z,60.66
2018-01-13T02:04:14.028Z,60.61
2018-01-13T02:05:16.504Z,60.59
2018-01-13T02:06:18.980Z,60.60
2018-01-13T02:07:21.457Z,60.68
2018-01-13T02:08:23.931Z,60.58
2018-01-13T02:09:26.399Z,60.45
2018-01-13T02:10:28.855Z,60.56
2018-01-13T02:11:31.329Z,60.54
2018-01-13T02:12:33.789Z,60.56
2018-01-13T02:13:36.271Z,60.64
2018-01-13T02:14:38.834Z,60.54
2018-01-13T02:15:41.290Z,60.49
2018-01-13T02:16:43.765Z,60.49
2018-01-13T02:17:46.240Z,60.45
2018-01-13T02:18:48.701Z,60.53
2018-01-13T02:19:51.162Z,60.58
2018-01-13T02:20:53.624Z,60.58
2018-01-13T02:21:56.086Z,60.55
2018-01-13T02:22:58.558Z,60.50
2018-01-13T02:24:01.053Z,60.60
2018-01-13T02:25:03.514Z,60.62
2018-01-13T02:26:05.981Z,60.72
2018-01-13T02:27:08.444Z,60.83
2018-01-13T02:28:10.915Z,60.80
2018-01-13T02:29:13.388Z,60.68
2018-01-13T02:30:15.854Z,60.79
2018-01-13T02:31:18.334Z,60.80
2018-01-13T02:32:20.801Z,60.75
2018-01-13T02:33:23.258Z,60.74
2018-01-13T02:34:25.739Z,60.87
2018-01-13T02:35:28.217Z,61.03
2018-01-13T02:36:30.674Z,61.40
2018-01-13T02:37:33.145Z,61.43
2018-01-13T02:38:35.616Z,61.38
2018-01-13T02:39:38.070Z,61.35
2018-01-13T02:40:40.548Z,61.20
2018-01-13T02:41:43.011Z,61.39
2018-01-13T02:42:45.469Z,61.62
2018-01-13T02:43:47.935Z,61.45
2018-01-13T02:44:50.398Z,61.79
2018-01-13T02:45:52.870Z,61.85
2018-01-13T02:46:55.349Z,61.98
2018-01-13T02:47:57.827Z,62.08
2018-01-13T02:49:00.308Z,62.21
2018-01-13T02:50:02.788Z,62.34
2018-01-13T02:51:05.246Z,62.24
2018-01-13T02:52:07.720Z,61.68
2018-01-13T02:53:10.189Z,61.02
2018-01-13T02:54:12.660Z,60.88
2018-01-13T02:55:15.136Z,60.91
2018-01-13T02:56:17.611Z,60.91
2018-01-13T02:57:20.067Z,60.91
2018-01-13T02:58:22.526Z,60.78
2018-01-13T02:59:24.990Z,60.75
2018-01-13T03:00:27.468Z,60.92
2018-01-13T03:01:29.944Z,61.24
2018-01-13T03:02:32.412Z,61.26
2018-01-13T03:03:34.873Z,61.29
2018-01-13T03:04:37.348Z,61.25
2018-01-13T03:05:39.807Z,61.43
2018-01-13T03:06:42.280Z,61.50
2018-01-13T03:07:44.768Z,61.49
2018-01-13T03:08:47.230Z,61.44
2018-01-13T03:09:49.730Z,61.53
2018-01-13T03:10:52.203Z,61.46
2018-01-13T03:11:54.657Z,61.58
2018-01-13T03:12:57.117Z,61.58
2018-01-13T03:13:59.615Z,61.59
2018-01-13T03:15:02.092Z,61.60
2018-01-13T03:16:04.567Z,61.49
2018-01-13T03:17:07.026Z,61.49
2018-01-13T03:18:10.085Z,61.49
2018-01-13T03:19:12.542Z,61.44
2018-01-13T03:20:15.016Z,61.42
2018-01-13T03:21:17.478Z,61.45
2018-01-13T03:22:19.952Z,61.53
2018-01-13T03:23:22.428Z,61.50
2018-01-13T03:24:24.886Z,61.40
2018-01-13T03:25:27.367Z,61.47
2018-01-13T03:26:29.826Z,61.39
2018-01-13T03:27:32.281Z,61.49
2018-01-13T03:28:34.736Z,61.43
2018-01-13T03:29:37.215Z,61.60
2018-01-13T03:30:39.670Z,61.62
2018-01-13T03:31:42.176Z,61.78
2018-01-13T03:32:44.652Z,61.84
2018-01-13T03:33:47.136Z,61.54
2018-01-13T03:34:49.593Z,61.38
2018-01-13T03:35:52.080Z,61.42
2018-01-13T03:36:54.534Z,61.48
2018-01-13T03:37:57.008Z,61.83
2018-01-13T03:38:59.469Z,62.20
2018-01-13T03:40:01.934Z,62.42
2018-01-13T03:41:04.408Z,62.22
2018-01-13T03:42:06.881Z,62.21
2018-01-13T03:43:09.394Z,62.11
2018-01-13T03:44:11.881Z,61.92
2018-01-13T03:45:14.336Z,61.91
2018-01-13T03:46:16.797Z,61.88
2018-01-13T03:47:19.274Z,61.90
2018-01-13T03:48:21.730Z,62.04
2018-01-13T03:49:24.202Z,62.01
2018-01-13T03:50:26.752Z,61.89
2018-01-13T03:51:29.232Z,61.74
2018-01-13T03:52:31.712Z,61.60
2018-01-13T03:53:34.192Z,61.75
2018-01-13T03:54:36.645Z,61.97
2018-01-13T03:55:39.103Z,62.06
2018-01-13T03:56:41.576Z,61.90
2018-01-13T03:57:44.048Z,61.84
2018-01-13T03:58:46.524Z,62.01
2018-01-13T03:59:49.008Z,62.09
2018-01-13T04:00:51.476Z,62.15
2018-01-13T04:01:53.930Z,62.26
2018-01-13T04:02:56.403Z,62.44
2018-01-13T04:03:58.877Z,62.46
2018-01-13T04:05:01.352Z,62.38
2018-01-13T04:06:03.840Z,62.08
2018-01-13T04:07:06.309Z,62.04
2018-01-13T04:08:09.256Z,62.11
2018-01-13T04:09:11.752Z,62.38
2018-01-13T04:10:14.236Z,62.21
2018-01-13T04:11:16.726Z,62.17
2018-01-13T04:12:19.188Z,62.09
2018-01-13T04:13:21.650Z,62.05
2018-01-13T04:14:24.114Z,62.06
2018-01-13T04:15:26.585Z,62.39
2018-01-13T04:16:29.050Z,62.51
2018-01-13T04:17:31.523Z,62.53
2018-01-13T04:18:34.000Z,62.49
2018-01-13T04:19:36.472Z,62.41
2018-01-13T04:20:38.982Z,62.17
2018-01-13T04:21:41.487Z,62.01
2018-01-13T04:22:43.950Z,62.01
2018-01-13T04:23:46.424Z,62.05
2018-01-13T04:24:48.888Z,62.01
2018-01-13T04:25:51.360Z,62.22
2018-01-13T04:26:53.837Z,62.54
2018-01-13T04:27:56.333Z,62.43
2018-01-13T04:28:58.802Z,62.16
2018-01-13T04:30:01.601Z,61.98
2018-01-13T04:31:04.064Z,61.72
2018-01-13T04:32:06.538Z,61.76
2018-01-13T04:33:09.020Z,61.88
2018-01-13T04:34:11.492Z,62.09
2018-01-13T04:35:13.964Z,62.02
2018-01-13T04:36:16.440Z,62.44
2018-01-13T04:37:18.897Z,62.76
2018-01-13T04:38:21.380Z,62.91
2018-01-13T04:39:23.845Z,63.01
2018-01-13T04:40:26.336Z,63.24
2018-01-13T04:41:28.803Z,63.29
2018-01-13T04:42:31.261Z,63.55
2018-01-13T04:43:33.721Z,63.62
2018-01-13T04:44:36.188Z,63.59
2018-01-13T04:45:38.659Z,63.53
2018-01-13T04:46:41.114Z,63.44
2018-01-13T04:47:43.570Z,63.32
2018-01-13T04:48:46.055Z,63.33
2018-01-13T04:49:48.513Z,63.57
2018-01-13T04:50:50.986Z,63.73
2018-01-13T04:51:53.437Z,63.49
2018-01-13T04:52:55.885Z,62.71
2018-01-13T04:53:58.356Z,62.80
2018-01-13T04:55:00.818Z,62.91
2018-01-13T04:56:03.291Z,62.77
2018-01-13T04:57:05.767Z,62.97
2018-01-13T04:58:09.044Z,63.03
2018-01-13T04:59:11.513Z,63.03
2018-01-13T05:00:14.090Z,62.92
2018-01-13T05:01:16.576Z,62.73
2018-01-13T05:02:19.038Z,62.88
2018-01-13T05:03:21.521Z,63.18
2018-01-13T05:04:23.981Z,63.27
2018-01-13T05:05:26.445Z,63.44
2018-01-13T05:06:28.916Z,63.38
2018-01-13T05:07:31.383Z,63.45
2018-01-13T05:08:33.846Z,63.45
2018-01-13T05:09:36.320Z,63.59
2018-01-13T05:10:38.802Z,63.63
2018-01-13T05:11:41.276Z,63.56
2018-01-13T05:12:43.734Z,63.43
2018-01-13T05:13:46.206Z,63.32
2018-01-13T05:14:48.676Z,63.25
2018-01-13T05:15:51.157Z,63.47
2018-01-13T05:16:53.615Z,63.54
2018-01-13T05:17:56.095Z,63.31
2018-01-13T05:18:58.568Z,63.37
2018-01-13T05:20:01.037Z,63.41
2018-01-13T05:21:03.493Z,63.06
2018-01-13T05:22:05.950Z,62.67
2018-01-13T05:23:08.417Z,62.60
2018-01-13T05:24:10.869Z,62.75
2018-01-13T05:25:13.329Z,62.75
2018-01-13T05:26:15.800Z,62.74
2018-01-13T05:27:18.257Z,62.80
2018-01-13T05:28:20.717Z,63.01
2018-01-13T05:29:23.178Z,63.08
2018-01-13T05:30:25.642Z,63.18
2018-01-13T05:31:28.116Z,63.12
2018-01-13T05:32:30.573Z,63.16
2018-01-13T05:33:33.067Z,63.09
2018-01-13T05:34:35.545Z,63.06
2018-01-13T05:35:38.019Z,63.25
2018-01-13T05:36:40.476Z,63.43
2018-01-13T05:37:42.948Z,63.62
2018-01-13T05:38:45.419Z,63.59
2018-01-13T05:39:47.887Z,63.56
2018-01-13T05:40:50.349Z,63.49
2018-01-13T05:41:52.831Z,63.42
2018-01-13T05:42:55.339Z,63.29
2018-01-13T05:43:57.772Z,63.35
2018-01-13T05:45:00.228Z,63.53
2018-01-13T05:46:02.715Z,63.53
2018-01-13T05:47:05.170Z,63.47
2018-01-13T05:48:07.902Z,63.17
2018-01-13T05:49:10.388Z,62.95
2018-01-13T05:50:12.855Z,62.83
2018-01-13T05:51:15.309Z,62.74
2018-01-13T05:52:17.793Z,62.61
2018-01-13T05:53:20.257Z,62.49
2018-01-13T05:54:22.743Z,62.52
2018-01-13T05:55:25.239Z,62.49
2018-01-13T05:56:27.716Z,62.76
2018-01-13T05:57:30.181Z,62.67
2018-01-13T05:58:32.651Z,62.67
2018-01-13T05:59:35.125Z,62.81
2018-01-13T06:00:37.587Z,62.81
2018-01-13T06:01:40.062Z,62.74
2018-01-13T06:02:42.538Z,62.49
2018-01-13T06:03:44.992Z,62.50
2018-01-13T06:04:47.464Z,62.65
2018-01-13T06:05:49.938Z,62.57
2018-01-13T06:06:52.418Z,62.49
2018-01-13T06:07:54.904Z,62.53
2018-01-13T06:08:57.372Z,62.76
2018-01-13T06:09:59.856Z,62.86
2018-01-13T06:11:02.323Z,62.75
2018-01-13T06:12:04.808Z,62.82
2018-01-13T06:13:07.272Z,62.92
2018-01-13T06:14:09.737Z,62.92
2018-01-13T06:15:12.221Z,63.04
2018-01-13T06:16:14.685Z,63.09
2018-01-13T06:17:17.160Z,63.14
2018-01-13T06:18:19.614Z,63.09
2018-01-13T06:19:22.090Z,63.18
2018-01-13T06:20:24.556Z,63.06
2018-01-13T06:21:27.015Z,63.27
2018-01-13T06:22:29.487Z,63.34
2018-01-13T06:23:31.941Z,63.53
2018-01-13T06:24:34.400Z,63.62
2018-01-13T06:25:36.852Z,63.52
2018-01-13T06:26:39.315Z,63.54
2018-01-13T06:27:41.815Z,63.33
2018-01-13T06:28:44.283Z,63.46
2018-01-13T06:29:46.754Z,63.46
2018-01-13T06:30:49.215Z,63.45
2018-01-13T06:31:51.679Z,63.47
2018-01-13T06:32:54.133Z,63.62
2018-01-13T06:33:56.591Z,63.64
2018-01-13T06:34:59.046Z,63.84
2018-01-13T06:36:01.506Z,63.83
2018-01-13T06:37:03.992Z,63.80
2018-01-13T06:38:06.470Z,63.93
2018-01-13T06:39:08.926Z,64.05
2018-01-13T06:40:11.386Z,63.95
2018-01-13T06:41:13.842Z,63.89
2018-01-13T06:42:16.335Z,63.77
2018-01-13T06:43:18.809Z,63.41
2018-01-13T06:44:21.342Z,63.29
2018-01-13T06:45:23.811Z,63.24
2018-01-13T06:46:26.290Z,63.08
2018-01-13T06:47:28.759Z,62.87
2018-01-13T06:48:31.213Z,62.90
2018-01-13T06:49:33.731Z,63.11
2018-01-13T06:50:36.204Z,62.96
2018-01-13T06:51:38.657Z,62.84
2018-01-13T06:52:41.140Z,62.83
2018-01-13T06:53:43.596Z,62.80
2018-01-13T06:54:46.072Z,62.76
2018-01-13T06:55:48.544Z,62.85
2018-01-13T06:56:51.009Z,63.40
2018-01-13T06:57:53.490Z,63.81
2018-01-13T06:58:55.964Z,63.89
2018-01-13T06:59:58.425Z,63.91
2018-01-13T07:01:00.888Z,64.02
2018-01-13T07:02:03.341Z,64.10
2018-01-13T07:03:05.809Z,64.04
2018-01-13T07:04:08.341Z,64.11
2018-01-13T07:05:10.786Z,64.14
2018-01-13T07:06:13.264Z,64.11
2018-01-13T07:07:15.740Z,64.09
2018-01-13T07:08:18.220Z,63.98
2018-01-13T07:09:20.678Z,64.11
2018-01-13T07:10:23.148Z,63.98
2018-01-13T07:11:25.613Z,63.94
2018-01-13T07:12:28.083Z,63.74
2018-01-13T07:13:30.537Z,63.76
2018-01-13T07:14:33.001Z,63.85
2018-01-13T07:15:35.454Z,63.69
2018-01-13T07:16:37.908Z,63.75
2018-01-13T07:17:40.369Z,64.04
2018-01-13T07:18:42.826Z,64.16
2018-01-13T07:19:45.296Z,64.13
2018-01-13T07:20:47.768Z,64.18
2018-01-13T07:21:50.254Z,64.21
2018-01-13T07:22:52.718Z,64.26
2018-01-13T07:23:55.196Z,64.12
2018-01-13T07:24:57.661Z,63.97
2018-01-13T07:26:00.137Z,63.99
2018-01-13T07:27:02.597Z,63.90
2018-01-13T07:28:05.071Z,63.89
2018-01-13T07:29:07.530Z,64.04
2018-01-13T07:30:09.993Z,64.41
2018-01-13T07:31:12.458Z,64.74
2018-01-13T07:32:14.922Z,64.75
2018-01-13T07:33:17.385Z,64.93
2018-01-13T07:34:19.857Z,64.82
2018-01-13T07:35:22.313Z,64.85
2018-01-13T07:36:24.788Z,64.89
2018-01-13T07:37:27.242Z,64.92
2018-01-13T07:38:29.706Z,64.88
2018-01-13T07:39:32.197Z,64.82
2018-01-13T07:40:34.659Z,64.83
2018-01-13T07:41:37.126Z,64.22
2018-01-13T07:42:39.600Z,63.97
2018-01-13T07:43:42.083Z,64.55
2018-01-13T07:44:44.537Z,64.38
2018-01-13T07:45:46.993Z,63.12
2018-01-13T07:46:49.481Z,62.91
2018-01-13T07:47:51.947Z,62.40
2018-01-13T07:48:54.402Z,61.22
2018-01-13T07:49:56.885Z,59.33
2018-01-13T07:50:59.360Z,59.26
2018-01-13T07:52:01.835Z,58.90
2018-01-13T07:53:04.305Z,58.70
2018-01-13T07:54:06.758Z,57.97
2018-01-13T07:55:09.240Z,57.67
2018-01-13T07:56:11.715Z,56.56
2018-01-13T07:57:14.187Z,56.74
2018-01-13T07:58:16.682Z,56.43
2018-01-13T07:59:19.155Z,55.95
2018-01-13T08:00:21.769Z,54.11
2018-01-13T08:01:24.226Z,53.42
2018-01-13T08:02:26.704Z,54.47
2018-01-13T08:03:29.215Z,54.12
2018-01-13T08:04:31.670Z,53.44
2018-01-13T08:05:34.134Z,53.46
2018-01-13T08:06:36.612Z,52.79
2018-01-13T08:07:39.096Z,52.50
2018-01-13T08:08:41.579Z,53.15
2018-01-13T08:09:44.058Z,53.14
2018-01-13T08:10:46.539Z,52.76
2018-01-13T08:11:49.028Z,52.80
2018-01-13T08:12:51.517Z,53.11
2018-01-13T08:13:54.031Z,53.20
2018-01-13T08:14:56.508Z,53.23
2018-01-13T08:15:58.986Z,53.23
2018-01-13T08:17:01.470Z,53.20
2018-01-13T08:18:03.962Z,53.25
2018-01-13T08:19:06.460Z,53.27
2018-01-13T08:20:08.960Z,53.25
2018-01-13T08:21:11.425Z,53.15
2018-01-13T08:22:13.900Z,53.02
2018-01-13T08:23:16.370Z,53.20
2018-01-13T08:24:18.856Z,53.47
2018-01-13T08:25:21.329Z,53.81
2018-01-13T08:26:23.820Z,54.05
2018-01-13T08:27:26.330Z,54.27
2018-01-13T08:28:28.820Z,54.49
2018-01-13T08:29:31.312Z,54.59
2018-01-13T08:30:33.786Z,54.72
2018-01-13T08:31:36.256Z,54.79
2018-01-13T08:32:38.734Z,54.81
2018-01-13T08:33:41.220Z,54.83
2018-01-13T08:34:43.699Z,54.96
2018-01-13T08:35:46.188Z,55.18
2018-01-13T08:36:48.669Z,55.42
2018-01-13T08:37:51.175Z,55.63
2018-01-13T08:38:53.665Z,55.84
2018-01-13T08:39:56.152Z,56.03
2018-01-13T08:40:58.649Z,56.26
2018-01-13T08:42:01.133Z,56.58
2018-01-13T08:43:03.615Z,56.72
2018-01-13T08:44:06.119Z,56.63
2018-01-13T08:45:08.604Z,56.59
2018-01-13T08:46:11.100Z,56.83
2018-01-13T08:47:13.571Z,56.92
2018-01-13T08:48:16.051Z,56.78
2018-01-13T08:49:18.523Z,56.62
2018-01-13T08:50:21.024Z,56.39
2018-01-13T08:51:23.498Z,56.28
2018-01-13T08:52:25.972Z,56.35
2018-01-13T08:53:28.434Z,56.26
2018-01-13T08:54:30.893Z,56.24
2018-01-13T08:55:33.376Z,56.24
2018-01-13T08:56:35.850Z,56.16
2018-01-13T08:57:38.347Z,56.26
2018-01-13T08:58:40.846Z,56.26
2018-01-13T08:59:43.323Z,56.38
2018-01-13T09:00:45.908Z,56.27
2018-01-13T09:01:48.392Z,56.41
2018-01-13T09:02:51.675Z,56.32
2018-01-13T09:03:54.148Z,56.30
2018-01-13T09:04:56.617Z,56.30
2018-01-13T09:05:59.850Z,56.29
2018-01-13T09:07:02.363Z,56.43
2018-01-13T09:08:04.863Z,56.64
2018-01-13T09:09:07.334Z,56.73
2018-01-13T09:10:09.809Z,56.84
2018-01-13T09:11:12.269Z,56.87
2018-01-13T09:12:14.749Z,56.93
2018-01-13T09:13:17.234Z,57.08
2018-01-13T09:14:19.712Z,57.31
2018-01-13T09:15:22.188Z,57.42
2018-01-13T09:16:24.669Z,57.54
2018-01-13T09:17:27.148Z,57.72
2018-01-13T09:18:29.637Z,57.85
2018-01-13T09:19:32.112Z,57.94
2018-01-13T09:20:34.581Z,57.86
2018-01-13T09:21:37.067Z,57.70
2018-01-13T09:22:39.534Z,57.84
2018-01-13T09:23:42.040Z,57.87
2018-01-13T09:24:44.523Z,57.85
2018-01-13T09:25:47.099Z,57.83
2018-01-13T09:26:49.582Z,57.74
2018-01-13T09:27:52.033Z,57.53
2018-01-13T09:28:54.536Z,57.33
2018-01-13T09:29:56.989Z,57.25
2018-01-13T09:30:59.462Z,57.14
2018-01-13T09:32:01.956Z,57.00
2018-01-13T09:33:04.922Z,57.01
2018-01-13T09:34:07.435Z,56.98
2018-01-13T09:35:09.909Z,57.01
2018-01-13T09:36:12.381Z,56.94
2018-01-13T09:37:14.844Z,57.03
2018-01-13T09:38:17.310Z,57.07
2018-01-13T09:39:19.798Z,57.09
2018-01-13T09:40:22.360Z,57.03
2018-01-13T09:41:24.833Z,57.04
2018-01-13T09:42:27.338Z,57.14
2018-01-13T09:43:29.899Z,57.13
2018-01-13T09:44:32.479Z,57.28
2018-01-13T09:45:34.948Z,57.36
2018-01-13T09:46:37.410Z,57.54
2018-01-13T09:47:39.884Z,57.56
2018-01-13T09:48:42.338Z,57.55
2018-01-13T09:49:44.832Z,57.60
2018-01-13T09:50:47.297Z,57.58
2018-01-13T09:51:49.750Z,57.65
2018-01-13T09:52:52.206Z,57.66
2018-01-13T09:53:54.672Z,57.67
2018-01-13T09:54:57.149Z,57.80
2018-01-13T09:55:59.636Z,57.75
2018-01-13T09:57:02.097Z,57.91
2018-01-13T09:58:04.579Z,57.95
2018-01-13T09:59:07.034Z,58.00
2018-01-13T10:00:09.510Z,58.02
2018-01-13T10:01:11.984Z,57.97
2018-01-13T10:02:14.456Z,58.09
2018-01-13T10:03:16.929Z,58.50
2018-01-13T10:04:19.386Z,58.97
2018-01-13T10:05:21.876Z,59.17
2018-01-13T10:06:24.356Z,59.20
2018-01-13T10:07:26.831Z,59.23
2018-01-13T10:08:29.303Z,59.21
2018-01-13T10:09:31.780Z,59.04
2018-01-13T10:10:34.272Z,59.32
2018-01-13T10:11:36.734Z,59.23
2018-01-13T10:12:39.218Z,59.05
2018-01-13T10:13:41.696Z,59.22
2018-01-13T10:14:44.155Z,59.04
2018-01-13T10:15:46.638Z,58.79
2018-01-13T10:16:49.098Z,58.69
2018-01-13T10:17:51.572Z,58.50
2018-01-13T10:18:54.045Z,58.35
2018-01-13T10:19:56.508Z,58.11
2018-01-13T10:20:59.010Z,57.52
2018-01-13T10:22:01.470Z,57.18
2018-01-13T10:23:03.936Z,56.93
2018-01-13T10:24:06.468Z,57.00
2018-01-13T10:25:08.948Z,56.54
2018-01-13T10:26:11.434Z,56.57
2018-01-13T10:27:13.908Z,56.97
2018-01-13T10:28:16.394Z,56.77
2018-01-13T10:29:18.864Z,56.60
2018-01-13T10:30:21.340Z,56.38
2018-01-13T10:31:23.850Z,56.20
2018-01-13T10:32:26.310Z,56.03
2018-01-13T10:33:28.780Z,56.13
2018-01-13T10:34:31.238Z,56.17
2018-01-13T10:35:33.690Z,56.70
2018-01-13T10:36:36.186Z,56.79
2018-01-13T10:37:38.664Z,57.00
2018-01-13T10:38:41.148Z,56.96
2018-01-13T10:39:43.624Z,56.74
2018-01-13T10:40:46.202Z,56.36
2018-01-13T10:41:48.705Z,56.19
2018-01-13T10:42:51.176Z,56.16
2018-01-13T10:43:53.660Z,56.39
2018-01-13T10:44:56.152Z,56.08
2018-01-13T10:45:58.618Z,56.56
2018-01-13T10:47:01.108Z,56.12
2018-01-13T10:48:03.588Z,55.09
2018-01-13T10:49:06.045Z,54.74
2018-01-13T10:50:08.518Z,54.16
2018-01-13T10:51:10.970Z,54.75
2018-01-13T10:52:14.360Z,54.90
2018-01-13T10:53:16.841Z,54.86
2018-01-13T10:54:19.346Z,54.99
2018-01-13T10:55:21.796Z,55.23
2018-01-13T10:56:24.254Z,54.83
2018-01-13T10:57:26.739Z,54.27
2018-01-13T10:58:29.194Z,55.09
2018-01-13T10:59:31.655Z,54.71
2018-01-13T11:00:34.128Z,53.94
2018-01-13T11:01:36.595Z,54.42
2018-01-13T11:02:39.084Z,54.92
2018-01-13T11:03:41.538Z,54.97
2018-01-13T11:04:43.997Z,54.51
2018-01-13T11:05:46.458Z,55.32
2018-01-13T11:06:48.910Z,55.23
2018-01-13T11:07:51.400Z,55.95
2018-01-13T11:08:53.859Z,56.29
2018-01-13T11:09:56.316Z,56.42
2018-01-13T11:10:58.773Z,56.03
2018-01-13T11:12:01.252Z,55.46
2018-01-13T11:13:03.742Z,55.95
2018-01-13T11:14:06.220Z,56.01
2018-01-13T11:15:08.673Z,55.62
2018-01-13T11:16:11.139Z,54.87
2018-01-13T11:17:13.597Z,54.71
2018-01-13T11:18:16.070Z,54.80
2018-01-13T11:19:18.548Z,55.17
2018-01-13T11:20:21.020Z,55.56
2018-01-13T11:21:23.496Z,55.94
2018-01-13T11:22:25.975Z,55.92
2018-01-13T11:23:28.479Z,55.91
2018-01-13T11:24:30.952Z,55.77
2018-01-13T11:25:33.414Z,55.48
2018-01-13T11:26:35.878Z,55.20
2018-01-13T11:27:38.334Z,55.12
2018-01-13T11:28:40.826Z,55.23
2018-01-13T11:29:43.295Z,55.38
2018-01-13T11:30:45.761Z,54.81
2018-01-13T11:31:48.217Z,54.29
2018-01-13T11:32:50.692Z,53.62
2018-01-13T11:33:53.172Z,53.55
2018-01-13T11:34:55.643Z,53.70
2018-01-13T11:35:58.121Z,54.13
2018-01-13T11:37:00.591Z,54.49
2018-01-13T11:38:03.071Z,54.63
2018-01-13T11:39:05.569Z,54.71
2018-01-13T11:40:08.039Z,54.38
2018-01-13T11:41:10.498Z,54.67
2018-01-13T11:42:12.968Z,54.97
2018-01-13T11:43:15.447Z,54.79
2018-01-13T11:44:17.925Z,54.58
2018-01-13T11:45:20.404Z,54.52
2018-01-13T11:46:22.893Z,54.25
2018-01-13T11:47:25.368Z,54.22
2018-01-13T11:48:27.836Z,54.21
2018-01-13T11:49:30.352Z,54.14
2018-01-13T11:50:32.823Z,54.38
2018-01-13T11:51:35.285Z,54.06
2018-01-13T11:52:37.760Z,53.80
2018-01-13T11:53:40.236Z,54.43
2018-01-13T11:54:42.727Z,54.38
2018-01-13T11:55:45.197Z,54.42
2018-01-13T11:56:47.675Z,54.62
2018-01-13T11:57:50.154Z,54.68
2018-01-13T11:58:52.636Z,54.56
2018-01-13T11:59:55.115Z,54.33
2018-01-13T12:00:57.593Z,54.13
2018-01-13T12:02:00.068Z,53.86
2018-01-13T12:03:02.543Z,53.65
2018-01-13T12:04:05.002Z,53.46
2018-01-13T12:05:07.489Z,53.26
2018-01-13T12:06:09.954Z,53.05
2018-01-13T12:07:12.418Z,53.18
2018-01-13T12:08:14.881Z,53.17
2018-01-13T12:09:17.364Z,53.06
2018-01-13T12:10:19.860Z,52.90
2018-01-13T12:11:22.313Z,52.78
2018-01-13T12:12:24.808Z,52.84
2018-01-13T12:13:27.278Z,52.62
2018-01-13T12:14:29.753Z,52.67
2018-01-13T12:15:32.252Z,52.59
2018-01-13T12:16:34.710Z,52.49
2018-01-13T12:17:37.191Z,52.48
2018-01-13T12:18:39.666Z,52.36
2018-01-13T12:19:42.170Z,52.23
2018-01-13T12:20:44.668Z,52.20
2018-01-13T12:21:47.137Z,52.26
2018-01-13T12:22:49.613Z,52.19
2018-01-13T12:23:52.066Z,52.17
2018-01-13T12:24:54.633Z,52.10
2018-01-13T12:25:57.116Z,52.22
2018-01-13T12:26:59.588Z,52.31
2018-01-13T12:28:02.060Z,52.33
2018-01-13T12:29:04.550Z,52.23
2018-01-13T12:30:07.233Z,52.16
2018-01-13T12:31:09.710Z,51.98
2018-01-13T12:32:12.183Z,51.91
2018-01-13T12:33:14.638Z,51.86
2018-01-13T12:34:17.108Z,51.83
2018-01-13T12:35:19.596Z,51.92
2018-01-13T12:36:22.101Z,51.90
2018-01-13T12:37:24.563Z,51.91
2018-01-13T12:38:27.041Z,51.88
2018-01-13T12:39:29.504Z,51.81
2018-01-13T12:40:31.976Z,51.74
2018-01-13T12:41:34.468Z,51.72
2018-01-13T12:42:36.948Z,51.76
2018-01-13T12:43:39.413Z,51.71
2018-01-13T12:44:41.874Z,51.66
2018-01-13T12:45:44.331Z,51.66
2018-01-13T12:46:46.824Z,51.61
2018-01-13T12:47:49.282Z,51.58
2018-01-13T12:48:51.756Z,51.54
2018-01-13T12:49:54.279Z,51.55
2018-01-13T12:50:56.753Z,51.53
2018-01-13T12:51:59.284Z,51.54
2018-01-13T12:53:01.742Z,51.52
2018-01-13T12:54:04.198Z,51.58
2018-01-13T12:55:06.667Z,51.51
2018-01-13T12:56:09.126Z,51.47
2018-01-13T12:57:11.602Z,51.42
2018-01-13T12:58:14.094Z,51.45
2018-01-13T12:59:16.560Z,51.51
2018-01-13T13:00:19.032Z,51.51
2018-01-13T13:01:21.519Z,51.46
2018-01-13T13:02:23.994Z,51.41
2018-01-13T13:03:26.454Z,51.35
2018-01-13T13:04:28.914Z,51.44
2018-01-13T13:05:31.384Z,51.42
2018-01-13T13:06:33.846Z,51.36
2018-01-13T13:07:36.345Z,51.32
2018-01-13T13:08:38.803Z,51.32
2018-01-13T13:09:41.271Z,51.35
2018-01-13T13:10:43.730Z,51.33
2018-01-13T13:11:46.204Z,51.21
2018-01-13T13:12:48.697Z,51.19
2018-01-13T13:13:51.150Z,51.17
2018-01-13T13:14:53.650Z,51.13
2018-01-13T13:15:56.136Z,51.14
2018-01-13T13:16:58.615Z,51.12
2018-01-13T13:18:01.108Z,51.12
2018-01-13T13:19:03.588Z,51.10
2018-01-13T13:20:06.064Z,51.11
2018-01-13T13:21:08.543Z,51.08
2018-01-13T13:22:11.030Z,51.05
2018-01-13T13:23:13.520Z,51.01
2018-01-13T13:24:15.993Z,51.05